Ginga — JJ4054 — position and weather

sailwx.info

Track history (hours):
 
Tides and Currents Weather Stations Pressure Air Temp Water Temp Dewpoint Dewpoint Depression Visibility Wind Speed Wind Dir Waves Ship Positions

Ginga

Last reported at 2014-Dec-20 05:23 UTC. Time now 2014-Dec-20 10:28 UTC.
Position N 34°36' E 134°55'.

Length 28 m; draft 1.6 m.

Type: Other ship. MMSI: 431301704.

Date/timePositionNaut miles runAvg speedWind from/ knotsBaromVisibWave heightAir tempDewpointWater temp
2014-Dec-20 05:23N 34°36' E 134°55'911.1
2014-Dec-20 04:33N 34°28' E 135°01'6 3.9
2014-Dec-20 03:05N 34°22' E 134°60'814.8
2014-Dec-20 02:33N 34°27' E 135°07'1413.6
2014-Dec-20 01:33N 34°33' E 135°22'1 0.6
2014-Dec-20 00:31N 34°34' E 135°22'1313.8
2014-Dec-19 23:33N 34°36' E 135°06'3 0.6
2014-Dec-19 19:33N 34°38' E 135°03'2 1.4
2014-Dec-19 18:26N 34°37' E 135°01'7 7.7
2014-Dec-19 17:33N 34°34' E 135°09'5 4.7
2014-Dec-19 16:33N 34°39' E 135°09'4 0.4
2014-Dec-19 06:33N 34°36' E 135°06'6 4.7
2014-Dec-19 05:20N 34°38' E 134°60'3 3.2
2014-Dec-19 04:27N 34°38' E 135°03'0 0.0
2014-Dec-18 20:31N 34°38' E 135°03'2 2.1
2014-Dec-18 19:33N 34°36' E 135°04'5 5.4
2014-Dec-18 18:33N 34°39' E 135°09'0 0.0
2014-Dec-17 23:29N 34°39' E 135°09'1011.1
2014-Dec-17 22:33N 34°37' E 134°57'9 8.8
2014-Dec-17 21:33N 34°35' E 135°08'4 4.4
2014-Dec-17 20:33N 34°39' E 135°09'4 0.1
2014-Dec-16 02:33N 34°42' E 135°14'9 9.2
2014-Dec-16 01:33N 34°35' E 135°07'8 6.7
2014-Dec-16 00:26N 34°38' E 134°58'1011.2
2014-Dec-15 23:33N 34°39' E 135°10'0 0.5
2014-Dec-15 22:33N 34°39' E 135°09'0 0.0
2014-Dec-15 07:33N 34°39' E 135°10'20 9.4
2014-Dec-15 05:28N 34°21' E 135°00'1213.0
2014-Dec-15 04:33N 34°32' E 135°06'11 0.4
2014-Dec-14 01:33N 34°36' E 134°53'1111.1
2014-Dec-14 00:33N 34°35' E 135°07'6 5.7
2014-Dec-13 23:33N 34°29' E 135°06'1410.7
2014-Dec-13 22:14N 34°16' E 134°59'5 7.2
2014-Dec-13 21:34N 34°12' E 135°02'1514.2
2014-Dec-13 20:32N 34°26' E 135°01'1515.4
2014-Dec-13 19:33N 34°39' E 135°10'0 0.0
2014-Dec-13 02:25N 34°39' E 135°09'6 7.3
2014-Dec-13 01:33N 34°37' E 135°02'4 3.7
2014-Dec-13 00:31N 34°35' E 135°06'4 0.3
2014-Dec-12 10:33N 34°38' E 135°10'11 8.9
2014-Dec-12 09:20N 34°36' E 134°57'4 5.1
2014-Dec-12 08:32N 34°35' E 135°02'2 1.8
2014-Dec-12 07:33N 34°37' E 135°01'4 4.3
2014-Dec-12 06:33N 34°37' E 135°06'3 0.3
2014-Dec-11 22:33N 34°38' E 135°09'7 6.6
2014-Dec-11 21:31N 34°37' E 135°01'6 6.6
2014-Dec-11 20:33N 34°36' E 135°08'3 3.3
2014-Dec-11 19:34N 34°39' E 135°09'0 0.0
2014-Dec-11 06:17N 34°39' E 135°09'911.9
2014-Dec-11 05:33N 34°31' E 135°06'1716.0
2014-Dec-11 04:28N 34°15' E 134°58'1313.6
2014-Dec-11 03:30N 34°27' E 135°03'8 8.0
2014-Dec-11 02:33N 34°35' E 135°04'11 2.7
2014-Dec-10 22:32N 34°39' E 134°52'1515.2
2014-Dec-10 21:33N 34°39' E 135°10'  
Track history (hours):
 
Tides and Currents Weather Stations Pressure Air Temp Water Temp Dewpoint Dewpoint Depression Visibility Wind Speed Wind Dir Waves Ship Positions

Ginga

Last reported at 2014-Dec-20 05:23 UTC. Time now 2014-Dec-20 10:28 UTC.
Position N 34°36' E 134°55'.

Length 28 m; draft 1.6 m.

Type: Other ship. MMSI: 431301704.

Date/timePositionNaut miles runAvg speedWind from/ knotsBaromVisibWave heightAir tempDewpointWater temp
2014-Dec-20 05:23N 34°36' E 134°55'911.1
2014-Dec-20 04:33N 34°28' E 135°01'6 3.9
2014-Dec-20 03:05N 34°22' E 134°60'814.8
2014-Dec-20 02:33N 34°27' E 135°07'1413.6
2014-Dec-20 01:33N 34°33' E 135°22'1 0.6
2014-Dec-20 00:31N 34°34' E 135°22'1313.8
2014-Dec-19 23:33N 34°36' E 135°06'3 0.6
2014-Dec-19 19:33N 34°38' E 135°03'2 1.4
2014-Dec-19 18:26N 34°37' E 135°01'7 7.7
2014-Dec-19 17:33N 34°34' E 135°09'5 4.7
2014-Dec-19 16:33N 34°39' E 135°09'4 0.4
2014-Dec-19 06:33N 34°36' E 135°06'6 4.7
2014-Dec-19 05:20N 34°38' E 134°60'3 3.2
2014-Dec-19 04:27N 34°38' E 135°03'0 0.0
2014-Dec-18 20:31N 34°38' E 135°03'2 2.1
2014-Dec-18 19:33N 34°36' E 135°04'5 5.4
2014-Dec-18 18:33N 34°39' E 135°09'0 0.0
2014-Dec-17 23:29N 34°39' E 135°09'1011.1
2014-Dec-17 22:33N 34°37' E 134°57'9 8.8
2014-Dec-17 21:33N 34°35' E 135°08'4 4.4
2014-Dec-17 20:33N 34°39' E 135°09'4 0.1
2014-Dec-16 02:33N 34°42' E 135°14'9 9.2
2014-Dec-16 01:33N 34°35' E 135°07'8 6.7
2014-Dec-16 00:26N 34°38' E 134°58'1011.2
2014-Dec-15 23:33N 34°39' E 135°10'0 0.5
2014-Dec-15 22:33N 34°39' E 135°09'0 0.0
2014-Dec-15 07:33N 34°39' E 135°10'20 9.4
2014-Dec-15 05:28N 34°21' E 135°00'1213.0
2014-Dec-15 04:33N 34°32' E 135°06'11 0.4
2014-Dec-14 01:33N 34°36' E 134°53'1111.1
2014-Dec-14 00:33N 34°35' E 135°07'6 5.7
2014-Dec-13 23:33N 34°29' E 135°06'1410.7
2014-Dec-13 22:14N 34°16' E 134°59'5 7.2
2014-Dec-13 21:34N 34°12' E 135°02'1514.2
2014-Dec-13 20:32N 34°26' E 135°01'1515.4
2014-Dec-13 19:33N 34°39' E 135°10'0 0.0
2014-Dec-13 02:25N 34°39' E 135°09'6 7.3
2014-Dec-13 01:33N 34°37' E 135°02'4 3.7
2014-Dec-13 00:31N 34°35' E 135°06'4 0.3
2014-Dec-12 10:33N 34°38' E 135°10'11 8.9
2014-Dec-12 09:20N 34°36' E 134°57'4 5.1
2014-Dec-12 08:32N 34°35' E 135°02'2 1.8
2014-Dec-12 07:33N 34°37' E 135°01'4 4.3
2014-Dec-12 06:33N 34°37' E 135°06'3 0.3
2014-Dec-11 22:33N 34°38' E 135°09'7 6.6
2014-Dec-11 21:31N 34°37' E 135°01'6 6.6
2014-Dec-11 20:33N 34°36' E 135°08'3 3.3
2014-Dec-11 19:34N 34°39' E 135°09'0 0.0
2014-Dec-11 06:17N 34°39' E 135°09'911.9
2014-Dec-11 05:33N 34°31' E 135°06'1716.0
2014-Dec-11 04:28N 34°15' E 134°58'1313.6
2014-Dec-11 03:30N 34°27' E 135°03'8 8.0
2014-Dec-11 02:33N 34°35' E 135°04'11 2.7
2014-Dec-10 22:32N 34°39' E 134°52'1515.2
2014-Dec-10 21:33N 34°39' E 135°10'  

Dump ship's entire track history